Main page
METAR-TAF:

METAR-TAF

Airports :

Pamplona Airport

Pamplona, Spain

latitude: 42-46N, longitude: 001-38W, elevation: 459 m

Current weather observation

The report was made 17 minutes ago, at 03:30 UTC
Wind 8 kt from the Northwest
Temperature 7°C
Humidity 87%
Pressure 1029 hPa
Visibility 10 km or more
no clouds below 1500 m and no cumulonimbus

METAR: LEPP 270330Z AUTO 32008KT CAVOK 07/05 Q1029

Time: 04:47 (03:47 UTC)

Forecast

The report was made 1 hour and 47 minutes ago, at 02:00 UTC
Forecast valid from 27 at 03 UTC to 28 at 03 UTC
Wind 9 kt from the Northwest
Visibility 10 km or more
Few clouds at a height of 2000 ft
Probability 30% :
Temporary
from 27 at 03 UTC to 27 at 08 UTC
Visibility: 1500 m
Broken clouds at a height of 1000 ft
patches of fog
Temporary
from 27 at 09 UTC to 27 at 20 UTC
Wind 19 kt from the North/Northwest

TAF: LEPP 270200Z 2703/2803 32009KT 9999 FEW020 TX13/2715Z TN03/2803Z PROB30 TEMPO 2703/2708 1500 BCFG BKN010 TEMPO 2709/2720 34019KT

Weather observations and forecasts of more than 4000 airports (METAR and TAF reports).

The available stations are represented by yellow and red dots on the map.

Hover mouse over dot to see the name of the station.

Then click to see weather observations and forecasts.

To change the map : click on the green buttons with a black cross to zoom in, on the green button with a dash to zoom out, or on the green arrows for adjacent maps.


METAR-TAF: